Exeland, Wisconsin
Current Conditions -  °F | °C
As of 10:35 PM on Tuesday 21 Oct 2014 (Local Time) from KRCX Reporting Station
Clear Clear  
Wind Chill: 41°   Ceiling: Unl
Heat Index: 41°   Visibility: 10mi
Dew Point: 35°   Wind: 3mph
Humidity: 78%   Direction: 140°SE
Pressure: 30.27"   Gusts: NA
Location:  45.67°N, 91.24°W
Report Text: KRCX 220335Z AUTO 14003KT 10SM CLR 05/02 A3027 RMK AO2 T00510016
Loading
Personal Weather Stations






























Interactive Weather Map
Tropical Storm Tracking
New forecast layout! Learn more

10-Day Weather Forecast

Advertisements
Track Severe Weather on mobile